sensor_id;sensor_type;location;lat;lon;timestamp;temperature;humidity
32201;DHT22;18701;45.588;5.288;2022-08-18T00:01:20;18.70;99.90
32201;DHT22;18701;45.588;5.288;2022-08-18T00:03:48;18.70;99.90
32201;DHT22;18701;45.588;5.288;2022-08-18T00:06:16;18.60;99.90
32201;DHT22;18701;45.588;5.288;2022-08-18T00:08:41;18.70;99.90
32201;DHT22;18701;45.588;5.288;2022-08-18T00:11:07;18.50;99.90
32201;DHT22;18701;45.588;5.288;2022-08-18T00:13:34;18.60;99.90
32201;DHT22;18701;45.588;5.288;2022-08-18T00:16:02;18.50;99.90
32201;DHT22;18701;45.588;5.288;2022-08-18T00:18:31;18.70;99.90
32201;DHT22;18701;45.588;5.288;2022-08-18T00:20:57;18.60;99.90
32201;DHT22;18701;45.588;5.288;2022-08-18T00:23:22;18.50;99.90
32201;DHT22;18701;45.588;5.288;2022-08-18T00:25:48;18.30;99.90
32201;DHT22;18701;45.588;5.288;2022-08-18T00:28:14;18.30;99.90
32201;DHT22;18701;45.588;5.288;2022-08-18T00:30:40;18.40;99.90
32201;DHT22;18701;45.588;5.288;2022-08-18T00:33:06;18.60;99.90
32201;DHT22;18701;45.588;5.288;2022-08-18T00:35:34;18.70;99.90
32201;DHT22;18701;45.588;5.288;2022-08-18T00:38:02;18.70;99.90
32201;DHT22;18701;45.588;5.288;2022-08-18T00:40:31;18.70;99.90
32201;DHT22;18701;45.588;5.288;2022-08-18T00:43:01;18.70;99.90
32201;DHT22;18701;45.588;5.288;2022-08-18T00:45:33;18.80;99.90
32201;DHT22;18701;45.588;5.288;2022-08-18T00:48:02;18.70;99.90
32201;DHT22;18701;45.588;5.288;2022-08-18T00:50:33;18.90;99.90
32201;DHT22;18701;45.588;5.288;2022-08-18T00:56:29;18.90;99.90
32201;DHT22;18701;45.588;5.288;2022-08-18T01:01:49;18.90;99.90
32201;DHT22;18701;45.588;5.288;2022-08-18T01:04:20;18.70;99.90
32201;DHT22;18701;45.588;5.288;2022-08-18T01:06:57;18.70;99.90
32201;DHT22;18701;45.588;5.288;2022-08-18T01:09:25;19.00;99.90
32201;DHT22;18701;45.588;5.288;2022-08-18T01:11:51;19.10;99.90
32201;DHT22;18701;45.588;5.288;2022-08-18T01:14:17;19.20;99.90
32201;DHT22;18701;45.588;5.288;2022-08-18T01:16:45;19.20;99.90
32201;DHT22;18701;45.588;5.288;2022-08-18T01:19:29;19.10;99.90
32201;DHT22;18701;45.588;5.288;2022-08-18T01:24:51;19.30;99.90
32201;DHT22;18701;45.588;5.288;2022-08-18T01:27:38;19.10;99.90
32201;DHT22;18701;45.588;5.288;2022-08-18T01:30:09;19.00;99.90
32201;DHT22;18701;45.588;5.288;2022-08-18T01:32:37;18.80;99.90
32201;DHT22;18701;45.588;5.288;2022-08-18T01:35:07;18.70;99.90
32201;DHT22;18701;45.588;5.288;2022-08-18T01:37:37;18.80;99.90
32201;DHT22;18701;45.588;5.288;2022-08-18T01:40:11;18.80;99.90
32201;DHT22;18701;45.588;5.288;2022-08-18T01:42:37;18.70;99.90
32201;DHT22;18701;45.588;5.288;2022-08-18T01:45:07;18.80;99.90
32201;DHT22;18701;45.588;5.288;2022-08-18T01:47:34;18.80;99.90
32201;DHT22;18701;45.588;5.288;2022-08-18T01:50:00;18.90;99.90
32201;DHT22;18701;45.588;5.288;2022-08-18T01:52:26;18.90;99.90
32201;DHT22;18701;45.588;5.288;2022-08-18T01:54:54;18.80;99.90
32201;DHT22;18701;45.588;5.288;2022-08-18T01:57:22;18.90;99.90
32201;DHT22;18701;45.588;5.288;2022-08-18T01:59:48;19.00;99.90
32201;DHT22;18701;45.588;5.288;2022-08-18T02:02:18;19.00;99.90
32201;DHT22;18701;45.588;5.288;2022-08-18T02:04:44;19.10;99.90
32201;DHT22;18701;45.588;5.288;2022-08-18T02:07:12;19.00;99.90
32201;DHT22;18701;45.588;5.288;2022-08-18T02:09:41;18.90;99.90
32201;DHT22;18701;45.588;5.288;2022-08-18T02:12:07;19.00;99.90
32201;DHT22;18701;45.588;5.288;2022-08-18T02:14:34;19.00;99.90
32201;DHT22;18701;45.588;5.288;2022-08-18T02:17:02;19.00;99.90
32201;DHT22;18701;45.588;5.288;2022-08-18T02:19:33;19.00;99.90
32201;DHT22;18701;45.588;5.288;2022-08-18T02:21:59;18.90;99.90
32201;DHT22;18701;45.588;5.288;2022-08-18T02:24:24;18.90;99.90
32201;DHT22;18701;45.588;5.288;2022-08-18T02:26:50;18.90;99.90
32201;DHT22;18701;45.588;5.288;2022-08-18T02:29:16;18.80;99.90
32201;DHT22;18701;45.588;5.288;2022-08-18T02:31:41;18.80;99.90
32201;DHT22;18701;45.588;5.288;2022-08-18T02:34:07;18.80;99.90
32201;DHT22;18701;45.588;5.288;2022-08-18T02:36:33;18.90;99.90
32201;DHT22;18701;45.588;5.288;2022-08-18T02:38:59;18.80;99.90
32201;DHT22;18701;45.588;5.288;2022-08-18T02:41:24;18.90;99.90
32201;DHT22;18701;45.588;5.288;2022-08-18T02:43:52;18.80;99.90
32201;DHT22;18701;45.588;5.288;2022-08-18T02:46:18;18.80;99.90
32201;DHT22;18701;45.588;5.288;2022-08-18T02:48:43;18.70;99.90
32201;DHT22;18701;45.588;5.288;2022-08-18T02:51:13;18.50;99.90
32201;DHT22;18701;45.588;5.288;2022-08-18T02:53:41;18.60;99.90
32201;DHT22;18701;45.588;5.288;2022-08-18T02:56:08;18.60;99.90
32201;DHT22;18701;45.588;5.288;2022-08-18T02:58:43;18.70;99.90
32201;DHT22;18701;45.588;5.288;2022-08-18T03:01:08;18.60;99.90
32201;DHT22;18701;45.588;5.288;2022-08-18T03:03:35;18.60;99.90
32201;DHT22;18701;45.588;5.288;2022-08-18T03:06:00;18.60;99.90
32201;DHT22;18701;45.588;5.288;2022-08-18T03:08:26;18.60;99.90
32201;DHT22;18701;45.588;5.288;2022-08-18T03:10:52;18.60;99.90
32201;DHT22;18701;45.588;5.288;2022-08-18T03:13:18;18.50;99.90
32201;DHT22;18701;45.588;5.288;2022-08-18T03:15:43;18.60;99.90
32201;DHT22;18701;45.588;5.288;2022-08-18T03:18:09;18.60;99.90
32201;DHT22;18701;45.588;5.288;2022-08-18T03:20:36;18.50;99.90
32201;DHT22;18701;45.588;5.288;2022-08-18T03:23:05;18.50;99.90
32201;DHT22;18701;45.588;5.288;2022-08-18T03:25:31;18.50;99.90
32201;DHT22;18701;45.588;5.288;2022-08-18T03:27:57;18.50;99.90
32201;DHT22;18701;45.588;5.288;2022-08-18T03:30:22;18.50;99.90
32201;DHT22;18701;45.588;5.288;2022-08-18T03:32:51;18.30;99.90
32201;DHT22;18701;45.588;5.288;2022-08-18T03:35:17;18.40;99.90
32201;DHT22;18701;45.588;5.288;2022-08-18T03:37:42;18.40;99.90
32201;DHT22;18701;45.588;5.288;2022-08-18T03:40:09;18.40;99.90
32201;DHT22;18701;45.588;5.288;2022-08-18T03:42:36;18.30;99.90
32201;DHT22;18701;45.588;5.288;2022-08-18T03:45:02;18.20;99.90
32201;DHT22;18701;45.588;5.288;2022-08-18T03:47:27;18.20;99.90
32201;DHT22;18701;45.588;5.288;2022-08-18T03:49:53;18.20;99.90
32201;DHT22;18701;45.588;5.288;2022-08-18T03:52:19;18.30;99.90
32201;DHT22;18701;45.588;5.288;2022-08-18T03:54:44;18.10;99.90
32201;DHT22;18701;45.588;5.288;2022-08-18T03:57:11;18.20;99.90
32201;DHT22;18701;45.588;5.288;2022-08-18T03:59:38;18.10;99.90
32201;DHT22;18701;45.588;5.288;2022-08-18T04:02:06;18.30;99.90
32201;DHT22;18701;45.588;5.288;2022-08-18T04:04:32;18.20;99.90
32201;DHT22;18701;45.588;5.288;2022-08-18T04:07:02;18.00;99.90
32201;DHT22;18701;45.588;5.288;2022-08-18T04:09:30;18.10;99.90
32201;DHT22;18701;45.588;5.288;2022-08-18T04:12:00;18.20;99.90
32201;DHT22;18701;45.588;5.288;2022-08-18T04:14:27;18.20;99.90
32201;DHT22;18701;45.588;5.288;2022-08-18T04:16:57;18.10;99.90
32201;DHT22;18701;45.588;5.288;2022-08-18T04:19:23;18.00;99.90
32201;DHT22;18701;45.588;5.288;2022-08-18T04:21:51;17.90;99.90
32201;DHT22;18701;45.588;5.288;2022-08-18T04:24:17;17.90;99.90
32201;DHT22;18701;45.588;5.288;2022-08-18T04:26:45;18.10;99.90
32201;DHT22;18701;45.588;5.288;2022-08-18T04:29:14;18.10;99.90
32201;DHT22;18701;45.588;5.288;2022-08-18T04:31:41;18.10;99.90
32201;DHT22;18701;45.588;5.288;2022-08-18T04:34:07;18.10;99.90
32201;DHT22;18701;45.588;5.288;2022-08-18T04:36:34;18.10;99.90
32201;DHT22;18701;45.588;5.288;2022-08-18T04:39:01;18.10;99.90
32201;DHT22;18701;45.588;5.288;2022-08-18T04:41:27;18.10;99.90
32201;DHT22;18701;45.588;5.288;2022-08-18T04:43:58;18.00;99.90
32201;DHT22;18701;45.588;5.288;2022-08-18T04:46:25;18.00;99.90
32201;DHT22;18701;45.588;5.288;2022-08-18T04:48:51;18.10;99.90
32201;DHT22;18701;45.588;5.288;2022-08-18T04:51:19;18.10;99.90
32201;DHT22;18701;45.588;5.288;2022-08-18T04:53:46;18.10;99.90
32201;DHT22;18701;45.588;5.288;2022-08-18T05:01:26;18.10;99.90
32201;DHT22;18701;45.588;5.288;2022-08-18T05:03:53;18.20;99.90
32201;DHT22;18701;45.588;5.288;2022-08-18T05:06:21;18.10;99.90
32201;DHT22;18701;45.588;5.288;2022-08-18T05:08:53;18.00;99.90
32201;DHT22;18701;45.588;5.288;2022-08-18T05:11:21;18.00;99.90
32201;DHT22;18701;45.588;5.288;2022-08-18T05:13:48;18.00;99.90
32201;DHT22;18701;45.588;5.288;2022-08-18T05:16:14;17.80;99.90
32201;DHT22;18701;45.588;5.288;2022-08-18T05:18:40;18.00;99.90
32201;DHT22;18701;45.588;5.288;2022-08-18T05:21:10;17.90;99.90
32201;DHT22;18701;45.588;5.288;2022-08-18T05:23:40;17.80;99.90
32201;DHT22;18701;45.588;5.288;2022-08-18T05:26:06;17.90;99.90
32201;DHT22;18701;45.588;5.288;2022-08-18T05:28:33;17.90;99.90
32201;DHT22;18701;45.588;5.288;2022-08-18T05:31:12;17.90;99.90
32201;DHT22;18701;45.588;5.288;2022-08-18T05:33:39;18.00;99.90
32201;DHT22;18701;45.588;5.288;2022-08-18T05:44:26;18.10;99.90
32201;DHT22;18701;45.588;5.288;2022-08-18T05:47:39;18.20;99.90
32201;DHT22;18701;45.588;5.288;2022-08-18T05:50:06;18.20;99.90
32201;DHT22;18701;45.588;5.288;2022-08-18T05:52:35;18.20;99.90
32201;DHT22;18701;45.588;5.288;2022-08-18T05:55:11;18.20;99.90
32201;DHT22;18701;45.588;5.288;2022-08-18T05:58:00;18.10;99.90
32201;DHT22;18701;45.588;5.288;2022-08-18T06:00:28;18.10;99.90
32201;DHT22;18701;45.588;5.288;2022-08-18T06:02:56;18.10;99.90
32201;DHT22;18701;45.588;5.288;2022-08-18T06:05:30;18.20;99.90
32201;DHT22;18701;45.588;5.288;2022-08-18T06:08:12;18.10;99.90
32201;DHT22;18701;45.588;5.288;2022-08-18T06:10:39;18.10;99.90
32201;DHT22;18701;45.588;5.288;2022-08-18T06:13:08;18.10;99.90
32201;DHT22;18701;45.588;5.288;2022-08-18T06:23:34;18.00;99.90
32201;DHT22;18701;45.588;5.288;2022-08-18T06:28:54;18.10;99.90
32201;DHT22;18701;45.588;5.288;2022-08-18T06:31:32;18.20;99.90
32201;DHT22;18701;45.588;5.288;2022-08-18T06:34:02;18.20;99.90
32201;DHT22;18701;45.588;5.288;2022-08-18T06:41:46;18.20;99.90
32201;DHT22;18701;45.588;5.288;2022-08-18T06:44:18;18.40;99.90
32201;DHT22;18701;45.588;5.288;2022-08-18T06:47:03;18.50;99.90
32201;DHT22;18701;45.588;5.288;2022-08-18T06:52:31;18.20;99.90
32201;DHT22;18701;45.588;5.288;2022-08-18T06:55:00;18.30;99.90
32201;DHT22;18701;45.588;5.288;2022-08-18T06:57:38;18.40;99.90
32201;DHT22;18701;45.588;5.288;2022-08-18T07:00:09;18.60;99.90
32201;DHT22;18701;45.588;5.288;2022-08-18T07:05:31;18.80;99.90
32201;DHT22;18701;45.588;5.288;2022-08-18T07:08:17;18.90;99.90
32201;DHT22;18701;45.588;5.288;2022-08-18T07:10:49;18.90;99.90
32201;DHT22;18701;45.588;5.288;2022-08-18T07:13:25;18.80;99.90
32201;DHT22;18701;45.588;5.288;2022-08-18T07:16:13;19.10;99.90
32201;DHT22;18701;45.588;5.288;2022-08-18T07:18:39;19.30;99.90
32201;DHT22;18701;45.588;5.288;2022-08-18T07:21:05;19.00;99.90
32201;DHT22;18701;45.588;5.288;2022-08-18T07:23:33;19.20;99.90
32201;DHT22;18701;45.588;5.288;2022-08-18T07:26:12;19.00;99.90
32201;DHT22;18701;45.588;5.288;2022-08-18T07:28:48;18.80;99.90
32201;DHT22;18701;45.588;5.288;2022-08-18T07:33:57;18.90;99.90
32201;DHT22;18701;45.588;5.288;2022-08-18T07:36:29;19.10;99.90
32201;DHT22;18701;45.588;5.288;2022-08-18T07:39:05;19.00;99.90
32201;DHT22;18701;45.588;5.288;2022-08-18T07:41:35;19.20;99.90
32201;DHT22;18701;45.588;5.288;2022-08-18T07:44:14;19.30;99.90
32201;DHT22;18701;45.588;5.288;2022-08-18T07:46:57;19.40;99.90
32201;DHT22;18701;45.588;5.288;2022-08-18T07:49:27;19.70;99.90
32201;DHT22;18701;45.588;5.288;2022-08-18T07:52:18;19.60;99.90
32201;DHT22;18701;45.588;5.288;2022-08-18T08:00:35;19.20;99.90
32201;DHT22;18701;45.588;5.288;2022-08-18T08:25:10;20.10;99.90
32201;DHT22;18701;45.588;5.288;2022-08-18T08:30:23;20.10;99.90
32201;DHT22;18701;45.588;5.288;2022-08-18T08:35:47;20.60;99.90
32201;DHT22;18701;45.588;5.288;2022-08-18T08:38:21;20.60;99.90
32201;DHT22;18701;45.588;5.288;2022-08-18T08:41:00;20.40;99.90
32201;DHT22;18701;45.588;5.288;2022-08-18T08:43:40;20.70;99.90
32201;DHT22;18701;45.588;5.288;2022-08-18T08:49:00;21.10;99.90
32201;DHT22;18701;45.588;5.288;2022-08-18T08:51:44;20.90;99.90
32201;DHT22;18701;45.588;5.288;2022-08-18T08:54:18;21.10;99.90
32201;DHT22;18701;45.588;5.288;2022-08-18T08:56:46;21.20;99.90
32201;DHT22;18701;45.588;5.288;2022-08-18T08:59:16;21.30;99.90
32201;DHT22;18701;45.588;5.288;2022-08-18T09:21:29;21.20;99.90
32201;DHT22;18701;45.588;5.288;2022-08-18T09:26:39;21.40;99.90
32201;DHT22;18701;45.588;5.288;2022-08-18T09:29:25;21.60;99.90
32201;DHT22;18701;45.588;5.288;2022-08-18T09:38:16;22.20;99.90
32201;DHT22;18701;45.588;5.288;2022-08-18T09:41:26;22.30;99.90
32201;DHT22;18701;45.588;5.288;2022-08-18T09:44:08;22.30;99.90
32201;DHT22;18701;45.588;5.288;2022-08-18T09:51:53;23.00;99.90
32201;DHT22;18701;45.588;5.288;2022-08-18T09:54:25;22.80;99.90
32201;DHT22;18701;45.588;5.288;2022-08-18T09:56:56;22.70;99.90
32201;DHT22;18701;45.588;5.288;2022-08-18T10:02:08;22.80;99.90
32201;DHT22;18701;45.588;5.288;2022-08-18T10:04:39;22.90;99.90
32201;DHT22;18701;45.588;5.288;2022-08-18T10:12:54;22.30;99.90
32201;DHT22;18701;45.588;5.288;2022-08-18T10:15:51;22.30;99.90
32201;DHT22;18701;45.588;5.288;2022-08-18T10:24:17;22.30;99.90
32201;DHT22;18701;45.588;5.288;2022-08-18T10:29:12;22.70;99.90
32201;DHT22;18701;45.588;5.288;2022-08-18T10:40:03;23.00;99.90
32201;DHT22;18701;45.588;5.288;2022-08-18T10:45:28;22.60;99.90
32201;DHT22;18701;45.588;5.288;2022-08-18T10:48:09;22.50;99.90
32201;DHT22;18701;45.588;5.288;2022-08-18T10:53:27;22.80;99.90
32201;DHT22;18701;45.588;5.288;2022-08-18T10:56:02;22.80;99.90
32201;DHT22;18701;45.588;5.288;2022-08-18T11:04:37;23.30;99.90
32201;DHT22;18701;45.588;5.288;2022-08-18T11:07:16;23.40;99.90
32201;DHT22;18701;45.588;5.288;2022-08-18T11:09:48;23.50;99.90
32201;DHT22;18701;45.588;5.288;2022-08-18T11:20:53;23.20;99.90
32201;DHT22;18701;45.588;5.288;2022-08-18T11:23:19;23.30;99.90
32201;DHT22;18701;45.588;5.288;2022-08-18T11:25:45;23.30;99.90
32201;DHT22;18701;45.588;5.288;2022-08-18T11:28:16;23.40;99.90
32201;DHT22;18701;45.588;5.288;2022-08-18T11:30:43;23.60;99.90
32201;DHT22;18701;45.588;5.288;2022-08-18T11:33:16;23.40;99.90
32201;DHT22;18701;45.588;5.288;2022-08-18T11:35:48;23.30;99.90
32201;DHT22;18701;45.588;5.288;2022-08-18T11:38:15;23.30;99.90
32201;DHT22;18701;45.588;5.288;2022-08-18T11:40:48;23.20;99.90
32201;DHT22;18701;45.588;5.288;2022-08-18T11:43:25;23.10;99.90
32201;DHT22;18701;45.588;5.288;2022-08-18T11:45:57;23.10;99.90
32201;DHT22;18701;45.588;5.288;2022-08-18T11:53:55;23.10;99.90
32201;DHT22;18701;45.588;5.288;2022-08-18T11:56:31;23.00;99.90
32201;DHT22;18701;45.588;5.288;2022-08-18T12:01:47;23.20;99.90
32201;DHT22;18701;45.588;5.288;2022-08-18T12:04:15;23.00;99.90
32201;DHT22;18701;45.588;5.288;2022-08-18T12:07:09;22.90;99.90
32201;DHT22;18701;45.588;5.288;2022-08-18T12:09:45;23.10;99.90
32201;DHT22;18701;45.588;5.288;2022-08-18T12:17:21;23.20;99.90
32201;DHT22;18701;45.588;5.288;2022-08-18T12:19:47;23.20;99.90
32201;DHT22;18701;45.588;5.288;2022-08-18T12:22:16;23.10;99.90
32201;DHT22;18701;45.588;5.288;2022-08-18T12:24:42;23.10;99.90
32201;DHT22;18701;45.588;5.288;2022-08-18T12:27:08;23.00;99.90
32201;DHT22;18701;45.588;5.288;2022-08-18T12:29:36;22.90;99.90
32201;DHT22;18701;45.588;5.288;2022-08-18T12:32:02;23.00;99.90
32201;DHT22;18701;45.588;5.288;2022-08-18T12:34:27;23.00;99.90
32201;DHT22;18701;45.588;5.288;2022-08-18T12:36:55;23.00;99.90
32201;DHT22;18701;45.588;5.288;2022-08-18T12:39:22;23.00;99.90
32201;DHT22;18701;45.588;5.288;2022-08-18T12:41:48;23.00;99.90
32201;DHT22;18701;45.588;5.288;2022-08-18T12:44:14;23.10;99.90
32201;DHT22;18701;45.588;5.288;2022-08-18T12:46:40;23.10;99.90
32201;DHT22;18701;45.588;5.288;2022-08-18T12:49:11;23.00;99.90
32201;DHT22;18701;45.588;5.288;2022-08-18T12:51:39;23.20;99.90
32201;DHT22;18701;45.588;5.288;2022-08-18T12:54:05;23.20;99.90
32201;DHT22;18701;45.588;5.288;2022-08-18T12:56:31;23.30;99.90
32201;DHT22;18701;45.588;5.288;2022-08-18T12:58:59;23.30;99.90
32201;DHT22;18701;45.588;5.288;2022-08-18T13:01:26;23.40;99.90
32201;DHT22;18701;45.588;5.288;2022-08-18T13:03:53;23.40;99.90
32201;DHT22;18701;45.588;5.288;2022-08-18T13:06:21;23.20;99.90
32201;DHT22;18701;45.588;5.288;2022-08-18T13:08:48;23.20;99.90
32201;DHT22;18701;45.588;5.288;2022-08-18T13:11:14;23.50;99.90
32201;DHT22;18701;45.588;5.288;2022-08-18T13:13:41;23.70;99.90
32201;DHT22;18701;45.588;5.288;2022-08-18T13:16:07;23.60;99.90
32201;DHT22;18701;45.588;5.288;2022-08-18T13:18:34;23.50;99.90
32201;DHT22;18701;45.588;5.288;2022-08-18T13:21:01;23.30;99.90
32201;DHT22;18701;45.588;5.288;2022-08-18T13:23:27;23.30;99.90
32201;DHT22;18701;45.588;5.288;2022-08-18T13:25:56;23.40;99.90
32201;DHT22;18701;45.588;5.288;2022-08-18T13:28:22;23.50;99.90
32201;DHT22;18701;45.588;5.288;2022-08-18T13:30:48;23.50;99.90
32201;DHT22;18701;45.588;5.288;2022-08-18T13:33:15;23.70;99.90
32201;DHT22;18701;45.588;5.288;2022-08-18T13:35:41;23.80;99.90
32201;DHT22;18701;45.588;5.288;2022-08-18T13:38:07;23.60;99.90
32201;DHT22;18701;45.588;5.288;2022-08-18T13:40:32;23.40;99.90
32201;DHT22;18701;45.588;5.288;2022-08-18T13:42:58;23.20;99.90
32201;DHT22;18701;45.588;5.288;2022-08-18T13:45:24;23.10;99.90
32201;DHT22;18701;45.588;5.288;2022-08-18T13:47:50;23.30;99.90
32201;DHT22;18701;45.588;5.288;2022-08-18T13:50:16;23.30;99.90
32201;DHT22;18701;45.588;5.288;2022-08-18T13:52:42;23.30;99.90
32201;DHT22;18701;45.588;5.288;2022-08-18T13:55:14;23.30;99.90
32201;DHT22;18701;45.588;5.288;2022-08-18T13:57:41;23.40;99.90
32201;DHT22;18701;45.588;5.288;2022-08-18T14:00:18;23.20;99.90
32201;DHT22;18701;45.588;5.288;2022-08-18T14:02:48;23.30;99.90
32201;DHT22;18701;45.588;5.288;2022-08-18T14:05:18;23.30;99.90
32201;DHT22;18701;45.588;5.288;2022-08-18T14:07:44;23.30;99.90
32201;DHT22;18701;45.588;5.288;2022-08-18T14:10:11;23.30;99.90
32201;DHT22;18701;45.588;5.288;2022-08-18T14:12:37;23.20;99.90
32201;DHT22;18701;45.588;5.288;2022-08-18T14:15:06;23.10;99.90
32201;DHT22;18701;45.588;5.288;2022-08-18T14:17:36;23.10;99.90
32201;DHT22;18701;45.588;5.288;2022-08-18T14:20:03;23.20;99.90
32201;DHT22;18701;45.588;5.288;2022-08-18T14:22:52;23.30;99.90
32201;DHT22;18701;45.588;5.288;2022-08-18T14:25:37;23.20;99.90
32201;DHT22;18701;45.588;5.288;2022-08-18T14:28:21;23.10;99.90
32201;DHT22;18701;45.588;5.288;2022-08-18T14:30:47;23.10;99.90
32201;DHT22;18701;45.588;5.288;2022-08-18T14:33:13;23.10;99.90
32201;DHT22;18701;45.588;5.288;2022-08-18T14:35:42;23.20;99.90
32201;DHT22;18701;45.588;5.288;2022-08-18T14:38:07;23.40;99.90
32201;DHT22;18701;45.588;5.288;2022-08-18T14:40:37;23.40;99.90
32201;DHT22;18701;45.588;5.288;2022-08-18T14:43:03;23.50;99.90
32201;DHT22;18701;45.588;5.288;2022-08-18T14:45:33;23.70;99.90
32201;DHT22;18701;45.588;5.288;2022-08-18T14:47:58;23.80;99.90
32201;DHT22;18701;45.588;5.288;2022-08-18T14:50:24;23.70;99.90
32201;DHT22;18701;45.588;5.288;2022-08-18T14:52:51;23.50;99.90
32201;DHT22;18701;45.588;5.288;2022-08-18T14:55:17;23.60;99.90
32201;DHT22;18701;45.588;5.288;2022-08-18T14:57:43;23.40;99.90
32201;DHT22;18701;45.588;5.288;2022-08-18T15:00:14;23.40;99.90
32201;DHT22;18701;45.588;5.288;2022-08-18T15:02:42;23.50;99.90
32201;DHT22;18701;45.588;5.288;2022-08-18T15:05:08;23.40;99.90
32201;DHT22;18701;45.588;5.288;2022-08-18T15:07:35;23.50;99.90
32201;DHT22;18701;45.588;5.288;2022-08-18T15:10:05;23.40;99.90
32201;DHT22;18701;45.588;5.288;2022-08-18T15:12:32;23.50;99.90
32201;DHT22;18701;45.588;5.288;2022-08-18T15:14:57;23.60;99.90
32201;DHT22;18701;45.588;5.288;2022-08-18T15:17:24;23.60;99.90
32201;DHT22;18701;45.588;5.288;2022-08-18T15:19:51;23.60;99.90
32201;DHT22;18701;45.588;5.288;2022-08-18T15:22:17;23.60;99.90
32201;DHT22;18701;45.588;5.288;2022-08-18T15:25:02;23.50;99.90
32201;DHT22;18701;45.588;5.288;2022-08-18T15:27:46;23.60;99.90
32201;DHT22;18701;45.588;5.288;2022-08-18T15:30:14;23.50;99.90
32201;DHT22;18701;45.588;5.288;2022-08-18T15:32:42;23.40;99.90
32201;DHT22;18701;45.588;5.288;2022-08-18T15:35:08;23.40;99.90
32201;DHT22;18701;45.588;5.288;2022-08-18T15:37:37;23.60;99.90
32201;DHT22;18701;45.588;5.288;2022-08-18T15:40:14;23.60;99.90
32201;DHT22;18701;45.588;5.288;2022-08-18T15:42:49;23.60;99.90
32201;DHT22;18701;45.588;5.288;2022-08-18T15:45:23;24.00;99.90
32201;DHT22;18701;45.588;5.288;2022-08-18T15:47:50;24.10;99.90
32201;DHT22;18701;45.588;5.288;2022-08-18T15:50:17;23.90;99.90
32201;DHT22;18701;45.588;5.288;2022-08-18T15:52:49;23.80;99.90
32201;DHT22;18701;45.588;5.288;2022-08-18T15:55:19;24.00;99.90
32201;DHT22;18701;45.588;5.288;2022-08-18T15:57:45;24.10;99.90
32201;DHT22;18701;45.588;5.288;2022-08-18T16:00:12;23.90;99.90
32201;DHT22;18701;45.588;5.288;2022-08-18T16:02:43;23.70;99.90
32201;DHT22;18701;45.588;5.288;2022-08-18T16:05:12;23.80;99.90
32201;DHT22;18701;45.588;5.288;2022-08-18T16:07:38;23.60;99.90
32201;DHT22;18701;45.588;5.288;2022-08-18T16:10:06;23.70;99.90
32201;DHT22;18701;45.588;5.288;2022-08-18T16:12:32;23.80;99.90
32201;DHT22;18701;45.588;5.288;2022-08-18T16:14:58;23.90;99.90
32201;DHT22;18701;45.588;5.288;2022-08-18T16:17:24;24.00;99.90
32201;DHT22;18701;45.588;5.288;2022-08-18T16:19:50;24.10;99.90
32201;DHT22;18701;45.588;5.288;2022-08-18T16:22:15;24.10;99.90
32201;DHT22;18701;45.588;5.288;2022-08-18T16:24:41;24.20;99.90
32201;DHT22;18701;45.588;5.288;2022-08-18T16:27:08;23.70;99.90
32201;DHT22;18701;45.588;5.288;2022-08-18T16:29:36;24.00;99.90
32201;DHT22;18701;45.588;5.288;2022-08-18T16:32:02;24.10;99.90
32201;DHT22;18701;45.588;5.288;2022-08-18T16:34:28;24.00;99.90
32201;DHT22;18701;45.588;5.288;2022-08-18T16:36:54;23.90;99.90
32201;DHT22;18701;45.588;5.288;2022-08-18T16:39:21;23.90;99.90
32201;DHT22;18701;45.588;5.288;2022-08-18T16:41:48;23.90;99.90
32201;DHT22;18701;45.588;5.288;2022-08-18T16:44:13;24.00;99.90
32201;DHT22;18701;45.588;5.288;2022-08-18T16:46:41;24.20;99.90
32201;DHT22;18701;45.588;5.288;2022-08-18T16:49:08;24.00;99.90
32201;DHT22;18701;45.588;5.288;2022-08-18T16:51:36;24.00;99.90
32201;DHT22;18701;45.588;5.288;2022-08-18T16:54:02;24.00;99.90
32201;DHT22;18701;45.588;5.288;2022-08-18T16:56:30;24.90;99.90
32201;DHT22;18701;45.588;5.288;2022-08-18T16:58:56;24.90;99.90
32201;DHT22;18701;45.588;5.288;2022-08-18T17:01:41;25.00;99.90
32201;DHT22;18701;45.588;5.288;2022-08-18T17:04:28;24.70;99.90
32201;DHT22;18701;45.588;5.288;2022-08-18T17:06:55;24.80;99.90
32201;DHT22;18701;45.588;5.288;2022-08-18T17:09:22;24.60;99.90
32201;DHT22;18701;45.588;5.288;2022-08-18T17:11:48;24.70;99.90
32201;DHT22;18701;45.588;5.288;2022-08-18T17:14:15;24.40;99.90
32201;DHT22;18701;45.588;5.288;2022-08-18T17:16:41;24.20;99.90
32201;DHT22;18701;45.588;5.288;2022-08-18T17:19:07;24.10;99.90
32201;DHT22;18701;45.588;5.288;2022-08-18T17:21:34;24.10;99.90
32201;DHT22;18701;45.588;5.288;2022-08-18T17:24:02;24.40;99.90
32201;DHT22;18701;45.588;5.288;2022-08-18T17:29:32;24.00;99.90
32201;DHT22;18701;45.588;5.288;2022-08-18T17:32:05;23.80;99.90
32201;DHT22;18701;45.588;5.288;2022-08-18T17:34:38;23.50;99.90
32201;DHT22;18701;45.588;5.288;2022-08-18T17:37:09;23.40;99.90
32201;DHT22;18701;45.588;5.288;2022-08-18T17:40:07;23.40;99.90
32201;DHT22;18701;45.588;5.288;2022-08-18T17:42:38;23.00;99.90
32201;DHT22;18701;45.588;5.288;2022-08-18T17:45:09;22.90;99.90
32201;DHT22;18701;45.588;5.288;2022-08-18T17:47:59;23.10;99.90
32201;DHT22;18701;45.588;5.288;2022-08-18T17:50:41;23.00;99.90
32201;DHT22;18701;45.588;5.288;2022-08-18T17:53:27;22.90;99.90
32201;DHT22;18701;45.588;5.288;2022-08-18T17:56:00;23.00;99.90
32201;DHT22;18701;45.588;5.288;2022-08-18T17:58:41;22.80;99.90
32201;DHT22;18701;45.588;5.288;2022-08-18T18:01:11;22.70;99.90
32201;DHT22;18701;45.588;5.288;2022-08-18T18:03:37;22.70;99.90
32201;DHT22;18701;45.588;5.288;2022-08-18T18:09:04;22.60;99.90
32201;DHT22;18701;45.588;5.288;2022-08-18T18:11:33;22.50;99.90
32201;DHT22;18701;45.588;5.288;2022-08-18T18:14:36;22.50;99.90
32201;DHT22;18701;45.588;5.288;2022-08-18T18:19:44;22.30;99.90
32201;DHT22;18701;45.588;5.288;2022-08-18T18:22:21;22.30;99.90
32201;DHT22;18701;45.588;5.288;2022-08-18T18:24:55;22.30;99.90
32201;DHT22;18701;45.588;5.288;2022-08-18T18:30:01;22.30;99.90
32201;DHT22;18701;45.588;5.288;2022-08-18T18:32:31;22.30;99.90
32201;DHT22;18701;45.588;5.288;2022-08-18T18:37:30;22.30;99.90
32201;DHT22;18701;45.588;5.288;2022-08-18T18:40:06;22.20;99.90
32201;DHT22;18701;45.588;5.288;2022-08-18T18:42:41;22.20;99.90
32201;DHT22;18701;45.588;5.288;2022-08-18T18:45:21;22.20;99.90
32201;DHT22;18701;45.588;5.288;2022-08-18T18:47:58;22.10;99.90
32201;DHT22;18701;45.588;5.288;2022-08-18T18:50:53;22.10;99.90
32201;DHT22;18701;45.588;5.288;2022-08-18T18:53:29;22.20;99.90
32201;DHT22;18701;45.588;5.288;2022-08-18T18:56:16;22.00;99.90
32201;DHT22;18701;45.588;5.288;2022-08-18T19:01:32;22.00;99.90